createdAt,value
2018-09-06T00:00:41.397Z,52.77
2018-09-06T00:03:09.802Z,56.20
2018-09-06T00:05:38.253Z,54.17
2018-09-06T00:08:07.030Z,54.60
2018-09-06T00:10:35.497Z,56.47
2018-09-06T00:13:04.002Z,55.90
2018-09-06T00:15:32.405Z,56.30
2018-09-06T00:18:00.809Z,58.63
2018-09-06T00:20:29.205Z,57.20
2018-09-06T00:22:57.788Z,58.27
2018-09-06T00:25:26.383Z,55.67
2018-09-06T00:27:54.803Z,58.03
2018-09-06T00:30:23.254Z,56.43
2018-09-06T00:32:51.814Z,55.20
2018-09-06T00:35:20.220Z,53.27
2018-09-06T00:37:48.625Z,53.97
2018-09-06T00:40:17.367Z,54.50
2018-09-06T00:42:45.796Z,52.57
2018-09-06T00:45:14.222Z,53.70
2018-09-06T00:47:42.641Z,52.83
2018-09-06T00:50:16.323Z,52.57
2018-09-06T00:52:46.141Z,54.70
2018-09-06T00:55:14.525Z,51.10
2018-09-06T00:57:43.002Z,54.00
2018-09-06T01:00:11.455Z,52.17
2018-09-06T01:02:40.108Z,51.87
2018-09-06T01:05:08.533Z,50.80
2018-09-06T01:07:36.985Z,53.80
2018-09-06T01:10:05.856Z,52.50
2018-09-06T01:12:34.248Z,54.63
2018-09-06T01:15:02.739Z,52.90
2018-09-06T01:17:31.354Z,54.00
2018-09-06T01:19:59.853Z,51.23
2018-09-06T01:22:28.328Z,51.20
2018-09-06T01:24:57.291Z,52.90
2018-09-06T01:27:25.705Z,51.17
2018-09-06T01:29:54.092Z,52.67
2018-09-06T01:32:22.743Z,53.23
2018-09-06T01:34:51.128Z,53.40
2018-09-06T01:37:19.528Z,53.13
2018-09-06T01:39:47.934Z,54.37
2018-09-06T01:42:16.317Z,58.37
2018-09-06T01:44:44.724Z,57.37
2018-09-06T01:47:13.116Z,60.33
2018-09-06T01:49:41.532Z,62.90
2018-09-06T01:52:09.944Z,60.73
2018-09-06T01:54:38.358Z,62.97
2018-09-06T01:57:06.740Z,66.27
2018-09-06T01:59:36.009Z,61.70
2018-09-06T02:02:04.688Z,60.87
2018-09-06T02:04:33.131Z,59.37
2018-09-06T02:07:01.618Z,64.80
2018-09-06T02:09:30.266Z,61.33
2018-09-06T02:11:58.668Z,59.63
2018-09-06T02:14:27.079Z,60.30
2018-09-06T02:16:55.697Z,68.50
2018-09-06T02:19:24.093Z,68.00
2018-09-06T02:21:52.526Z,68.03
2018-09-06T02:24:21.196Z,70.50
2018-09-06T02:26:49.533Z,71.30
2018-09-06T02:29:17.932Z,66.33
2018-09-06T02:31:46.372Z,66.57
2018-09-06T02:34:14.796Z,66.70
2018-09-06T02:36:43.174Z,60.93
2018-09-06T02:39:12.134Z,64.17
2018-09-06T02:41:40.542Z,69.23
2018-09-06T02:44:09.364Z,67.70
2018-09-06T02:46:37.870Z,75.93
2018-09-06T02:49:06.317Z,74.67
2018-09-06T02:51:34.804Z,76.83
2018-09-06T02:54:03.323Z,77.57
2018-09-06T02:56:31.633Z,77.50
2018-09-06T02:59:00.031Z,74.67
2018-09-06T03:01:28.436Z,74.03
2018-09-06T03:03:56.896Z,76.30
2018-09-06T03:06:25.294Z,76.07
2018-09-06T03:08:53.689Z,68.27
2018-09-06T03:11:24.441Z,72.60
2018-09-06T03:13:53.316Z,72.13
2018-09-06T03:16:21.779Z,71.60
2018-09-06T03:18:50.252Z,72.53
2018-09-06T03:21:19.050Z,71.33
2018-09-06T03:23:47.429Z,76.47
2018-09-06T03:26:18.060Z,71.50
2018-09-06T03:28:48.149Z,76.70
2018-09-06T03:31:16.737Z,73.30
2018-09-06T03:33:45.936Z,73.63
2018-09-06T03:36:14.813Z,70.83
2018-09-06T03:38:43.449Z,76.20
2018-09-06T03:41:11.854Z,72.70
2018-09-06T03:43:40.292Z,75.87
2018-09-06T03:46:09.474Z,78.47
2018-09-06T03:48:38.048Z,79.70
2018-09-06T03:51:07.039Z,77.57
2018-09-06T03:53:35.813Z,76.20
2018-09-06T03:56:04.320Z,78.10
2018-09-06T03:58:32.778Z,78.70
2018-09-06T04:01:01.231Z,78.00
2018-09-06T04:03:29.614Z,77.03
2018-09-06T04:05:58.012Z,77.57
2018-09-06T04:08:26.428Z,77.20
2018-09-06T04:10:54.982Z,70.70
2018-09-06T04:13:23.380Z,70.97
2018-09-06T04:15:51.770Z,70.60
2018-09-06T04:18:20.246Z,67.70
2018-09-06T04:20:48.619Z,70.17
2018-09-06T04:23:17.051Z,69.70
2018-09-06T04:25:45.500Z,70.60
2018-09-06T04:28:14.271Z,70.17
2018-09-06T04:30:42.961Z,70.37
2018-09-06T04:33:11.392Z,73.23
2018-09-06T04:35:39.793Z,77.50
2018-09-06T04:38:08.396Z,84.50
2018-09-06T04:40:36.836Z,78.43
2018-09-06T04:43:05.268Z,72.90
2018-09-06T04:45:33.689Z,70.50
2018-09-06T04:48:02.137Z,69.77
2018-09-06T04:50:30.556Z,72.40
2018-09-06T04:52:59.160Z,75.13
2018-09-06T04:55:27.545Z,78.80
2018-09-06T04:57:55.942Z,74.30
2018-09-06T05:00:24.605Z,77.00
2018-09-06T05:02:52.976Z,75.13
2018-09-06T05:05:21.380Z,75.50
2018-09-06T05:07:50.047Z,77.60
2018-09-06T05:10:18.506Z,77.87
2018-09-06T05:12:46.931Z,81.07
2018-09-06T05:15:15.589Z,83.60
2018-09-06T05:17:43.989Z,80.80
2018-09-06T05:20:12.420Z,81.50
2018-09-06T05:22:40.827Z,76.00
2018-09-06T05:25:09.265Z,70.80
2018-09-06T05:27:37.687Z,65.70
2018-09-06T05:30:06.360Z,69.70
2018-09-06T05:32:34.782Z,69.03
2018-09-06T05:35:03.433Z,71.90
2018-09-06T05:37:31.828Z,73.33
2018-09-06T05:40:00.248Z,69.40
2018-09-06T05:42:28.660Z,73.73
2018-09-06T05:44:57.045Z,70.00
2018-09-06T05:47:25.534Z,75.23
2018-09-06T05:49:53.955Z,69.57
2018-09-06T05:52:22.707Z,74.97
2018-09-06T05:54:51.122Z,69.10
2018-09-06T05:57:19.533Z,65.43
2018-09-06T05:59:52.264Z,65.53
2018-09-06T06:02:20.645Z,66.70
2018-09-06T06:04:49.044Z,65.30
2018-09-06T06:07:17.661Z,60.90
2018-09-06T06:09:46.122Z,60.40
2018-09-06T06:12:15.065Z,61.33
2018-09-06T06:14:43.626Z,63.63
2018-09-06T06:17:12.011Z,64.10
2018-09-06T06:19:40.457Z,64.57
2018-09-06T06:22:08.844Z,65.00
2018-09-06T06:24:37.242Z,64.60
2018-09-06T06:27:05.683Z,67.47
2018-09-06T06:29:34.404Z,68.03
2018-09-06T06:32:02.854Z,67.87
2018-09-06T06:34:31.322Z,67.23
2018-09-06T06:36:59.728Z,70.47
2018-09-06T06:39:28.168Z,72.07
2018-09-06T06:41:56.575Z,68.80
2018-09-06T06:44:25.187Z,68.17
2018-09-06T06:46:53.583Z,66.50
2018-09-06T06:49:22.070Z,66.23
2018-09-06T06:51:50.727Z,67.70
2018-09-06T06:54:19.158Z,67.30
2018-09-06T06:56:47.680Z,71.10
2018-09-06T06:59:16.265Z,67.50
2018-09-06T07:01:44.681Z,70.17
2018-09-06T07:04:13.096Z,69.10
2018-09-06T07:06:41.661Z,73.47
2018-09-06T07:09:10.768Z,71.63
2018-09-06T07:11:39.184Z,69.50
2018-09-06T07:14:07.862Z,73.70
2018-09-06T07:16:36.265Z,71.20
2018-09-06T07:19:04.780Z,74.17
2018-09-06T07:21:33.245Z,72.33
2018-09-06T07:24:01.648Z,68.23
2018-09-06T07:26:30.058Z,66.70
2018-09-06T07:28:58.704Z,67.70
2018-09-06T07:31:27.128Z,67.87
2018-09-06T07:33:55.809Z,66.27
2018-09-06T07:36:24.200Z,67.33
2018-09-06T07:38:52.600Z,69.27
2018-09-06T07:41:21.047Z,67.93
2018-09-06T07:43:49.409Z,66.77
2018-09-06T07:46:17.888Z,69.80
2018-09-06T07:48:46.288Z,71.97
2018-09-06T07:51:14.697Z,67.67
2018-09-06T07:53:43.127Z,66.63
2018-09-06T07:56:11.531Z,68.47
2018-09-06T07:58:39.934Z,68.43
2018-09-06T08:01:08.582Z,63.47
2018-09-06T08:03:37.089Z,69.23
2018-09-06T08:06:05.532Z,66.00
2018-09-06T08:08:34.112Z,65.03
2018-09-06T08:11:02.533Z,68.83
2018-09-06T08:13:30.960Z,66.33
2018-09-06T08:15:59.371Z,63.27
2018-09-06T08:18:27.761Z,64.57
2018-09-06T08:20:56.226Z,64.77
2018-09-06T08:23:24.660Z,63.37
2018-09-06T08:25:53.104Z,63.70
2018-09-06T08:28:21.768Z,64.10
2018-09-06T08:30:50.241Z,61.40
2018-09-06T08:33:18.601Z,64.90
2018-09-06T08:35:47.033Z,63.87
2018-09-06T08:38:15.433Z,61.67
2018-09-06T08:40:44.029Z,62.13
2018-09-06T08:43:12.448Z,61.30
2018-09-06T08:45:41.101Z,61.20
2018-09-06T08:48:09.560Z,62.67
2018-09-06T08:50:38.770Z,61.77
2018-09-06T08:53:07.252Z,61.73
2018-09-06T08:55:35.640Z,62.13
2018-09-06T08:58:04.049Z,62.30
2018-09-06T09:00:36.715Z,60.07
2018-09-06T09:03:05.714Z,60.97
2018-09-06T09:05:34.068Z,60.23
2018-09-06T09:08:02.532Z,59.80
2018-09-06T09:10:31.128Z,56.50
2018-09-06T09:12:59.571Z,57.23
2018-09-06T09:15:28.136Z,56.17
2018-09-06T09:17:56.613Z,54.27
2018-09-06T09:20:25.045Z,53.70
2018-09-06T09:22:56.177Z,53.17
2018-09-06T09:25:24.697Z,52.80
2018-09-06T09:27:53.296Z,53.20
2018-09-06T09:30:21.715Z,55.60
2018-09-06T09:32:50.149Z,53.80
2018-09-06T09:35:18.931Z,54.20
2018-09-06T09:37:47.384Z,53.73
2018-09-06T09:40:15.813Z,53.37
2018-09-06T09:42:44.475Z,51.50
2018-09-06T09:45:12.915Z,52.23
2018-09-06T09:47:41.361Z,52.60
2018-09-06T09:50:09.981Z,53.33
2018-09-06T09:52:38.492Z,54.73
2018-09-06T09:55:07.052Z,50.50
2018-09-06T09:57:35.591Z,52.80
2018-09-06T10:00:04.190Z,53.73
2018-09-06T10:03:35.860Z,55.10
2018-09-06T10:06:09.565Z,52.50
2018-09-06T10:08:43.614Z,49.40
2018-09-06T10:11:12.036Z,46.60
2018-09-06T10:13:40.440Z,49.53
2018-09-06T10:16:08.908Z,48.67
2018-09-06T10:18:37.424Z,46.23
2018-09-06T10:21:05.952Z,47.10
2018-09-06T10:23:34.609Z,46.63
2018-09-06T10:26:03.024Z,45.20
2018-09-06T10:28:31.470Z,45.77
2018-09-06T10:31:00.160Z,46.60
2018-09-06T10:33:28.561Z,43.10
2018-09-06T10:35:57.008Z,43.10
2018-09-06T10:38:25.697Z,43.83
2018-09-06T10:40:54.109Z,40.73
2018-09-06T10:43:22.556Z,42.40
2018-09-06T10:45:51.213Z,41.53
2018-09-06T10:48:19.698Z,42.10
2018-09-06T10:50:48.187Z,44.00
2018-09-06T10:53:17.520Z,45.00
2018-09-06T10:55:45.949Z,42.87
2018-09-06T10:58:14.323Z,41.17
2018-09-06T11:00:43.561Z,39.40
2018-09-06T11:03:12.113Z,38.00
2018-09-06T11:05:41.417Z,38.13
2018-09-06T11:08:10.561Z,34.20
2018-09-06T11:10:44.080Z,35.80
2018-09-06T11:13:12.528Z,34.67
2018-09-06T11:15:41.268Z,37.10
2018-09-06T11:18:10.017Z,35.63
2018-09-06T11:20:38.425Z,35.83
2018-09-06T11:23:06.840Z,33.70
2018-09-06T11:25:35.431Z,32.60
2018-09-06T11:28:03.817Z,31.50
2018-09-06T11:30:32.225Z,31.70
2018-09-06T11:33:00.850Z,30.17
2018-09-06T11:35:29.253Z,28.87
2018-09-06T11:38:04.160Z,28.73
2018-09-06T11:40:32.840Z,28.13
2018-09-06T11:43:01.208Z,28.27
2018-09-06T11:45:29.792Z,28.27
2018-09-06T11:47:58.303Z,28.40
2018-09-06T11:50:26.726Z,27.80
2018-09-06T11:52:55.161Z,26.77
2018-09-06T11:55:23.558Z,28.53
2018-09-06T11:57:52.008Z,28.00
2018-09-06T12:00:20.481Z,27.30
2018-09-06T12:02:49.077Z,29.07
2018-09-06T12:05:17.482Z,29.77
2018-09-06T12:07:45.925Z,27.30
2018-09-06T12:10:14.369Z,28.60
2018-09-06T12:12:42.792Z,28.83
2018-09-06T12:15:11.395Z,32.43
2018-09-06T12:17:39.816Z,31.60
2018-09-06T12:20:08.228Z,33.77
2018-09-06T12:22:36.697Z,37.20
2018-09-06T12:25:05.493Z,33.13
2018-09-06T12:27:34.217Z,33.00
2018-09-06T12:30:02.660Z,33.07
2018-09-06T12:32:31.104Z,34.93
2018-09-06T12:35:00.075Z,31.83
2018-09-06T12:37:28.481Z,32.40
2018-09-06T12:39:57.181Z,36.97
2018-09-06T12:42:25.593Z,36.80
2018-09-06T12:44:54.048Z,38.07
2018-09-06T12:47:22.607Z,39.03
2018-09-06T12:49:51.144Z,37.20
2018-09-06T12:52:19.624Z,40.40
2018-09-06T12:54:48.068Z,42.37
2018-09-06T12:57:16.550Z,39.47
2018-09-06T12:59:45.060Z,43.13
2018-09-06T13:02:13.524Z,43.30
2018-09-06T13:04:42.243Z,40.87
2018-09-06T13:07:10.781Z,44.73
2018-09-06T13:09:39.207Z,44.63
2018-09-06T13:12:07.684Z,45.90
2018-09-06T13:14:36.064Z,43.77
2018-09-06T13:17:04.529Z,44.90
2018-09-06T13:19:33.096Z,45.90
2018-09-06T13:22:01.555Z,47.17
2018-09-06T13:24:29.960Z,47.77
2018-09-06T13:26:58.389Z,47.70
2018-09-06T13:29:26.892Z,49.63
2018-09-06T13:31:55.296Z,47.77
2018-09-06T13:34:23.852Z,49.17
2018-09-06T13:36:52.259Z,48.03
2018-09-06T13:39:20.735Z,46.47
2018-09-06T13:41:49.177Z,46.80
2018-09-06T13:44:17.586Z,49.03
2018-09-06T13:46:46.028Z,45.97
2018-09-06T13:49:14.408Z,46.83
2018-09-06T13:51:43.014Z,45.57
2018-09-06T13:54:11.427Z,47.53
2018-09-06T13:56:39.914Z,43.70
2018-09-06T13:59:08.373Z,44.47
2018-09-06T14:01:36.881Z,47.23
2018-09-06T14:04:05.319Z,44.67
2018-09-06T14:06:33.759Z,42.90
2018-09-06T14:09:02.173Z,44.50
2018-09-06T14:11:30.576Z,43.70
2018-09-06T14:13:59.002Z,39.93
2018-09-06T14:16:27.630Z,39.40
2018-09-06T14:18:56.006Z,38.80
2018-09-06T14:21:24.428Z,38.53
2018-09-06T14:23:53.041Z,36.80
2018-09-06T14:26:21.436Z,37.03
2018-09-06T14:28:49.868Z,32.60
2018-09-06T14:31:18.326Z,35.60
2018-09-06T14:33:46.740Z,34.50
2018-09-06T14:36:15.200Z,35.10
2018-09-06T14:38:43.735Z,33.27
2018-09-06T14:41:12.242Z,33.40
2018-09-06T14:43:40.664Z,37.33
2018-09-06T14:46:09.097Z,34.53
2018-09-06T14:48:37.930Z,35.50
2018-09-06T14:51:06.317Z,33.87
2018-09-06T14:53:34.825Z,33.50
2018-09-06T14:56:03.253Z,34.80
2018-09-06T14:58:31.657Z,33.73
2018-09-06T15:01:00.137Z,34.00
2018-09-06T15:03:28.589Z,30.93
2018-09-06T15:05:57.216Z,31.10
2018-09-06T15:08:25.626Z,33.07
2018-09-06T15:10:54.039Z,32.70
2018-09-06T15:13:22.523Z,34.13
2018-09-06T15:15:50.949Z,36.47
2018-09-06T15:18:19.373Z,32.87
2018-09-06T15:20:47.804Z,31.80
2018-09-06T15:23:16.216Z,28.60
2018-09-06T15:25:44.718Z,28.60
2018-09-06T15:28:13.672Z,30.03
2018-09-06T15:30:42.079Z,31.63
2018-09-06T15:33:10.504Z,30.77
2018-09-06T15:35:38.958Z,28.43
2018-09-06T15:38:07.748Z,29.60
2018-09-06T15:40:36.236Z,29.93
2018-09-06T15:43:04.680Z,30.63
2018-09-06T15:45:33.168Z,30.50
2018-09-06T15:48:01.624Z,33.63
2018-09-06T15:50:30.034Z,32.80
2018-09-06T15:52:58.649Z,32.33
2018-09-06T15:55:27.091Z,35.47
2018-09-06T15:57:55.504Z,36.20
2018-09-06T16:00:23.953Z,34.90
2018-09-06T16:02:52.409Z,34.53
2018-09-06T16:05:20.844Z,35.30
2018-09-06T16:07:49.244Z,36.13
2018-09-06T16:10:17.918Z,36.43
2018-09-06T16:12:46.345Z,37.47
2018-09-06T16:15:14.750Z,37.97
2018-09-06T16:17:43.177Z,36.77
2018-09-06T16:20:11.596Z,34.10
2018-09-06T16:22:40.056Z,32.40
2018-09-06T16:25:08.480Z,31.40
2018-09-06T16:27:37.036Z,30.97
2018-09-06T16:30:06.392Z,29.93
2018-09-06T16:32:34.801Z,29.70
2018-09-06T16:35:03.313Z,29.70
2018-09-06T16:37:31.773Z,28.53
2018-09-06T16:40:00.256Z,28.30
2018-09-06T16:42:28.846Z,28.30
2018-09-06T16:44:57.290Z,29.80
2018-09-06T16:47:26.442Z,28.57
2018-09-06T16:49:55.015Z,26.93
2018-09-06T16:52:23.478Z,22.93
2018-09-06T16:54:51.869Z,20.50
2018-09-06T16:57:20.289Z,19.20
2018-09-06T16:59:48.746Z,17.57
2018-09-06T17:02:17.208Z,15.00
2018-09-06T17:04:45.858Z,15.87
2018-09-06T17:07:14.530Z,14.87
2018-09-06T17:09:43.038Z,16.60
2018-09-06T17:12:11.490Z,15.07
2018-09-06T17:14:40.244Z,15.50
2018-09-06T17:17:08.984Z,14.47
2018-09-06T17:19:37.461Z,14.10
2018-09-06T17:22:06.161Z,13.87
2018-09-06T17:24:34.602Z,13.10
2018-09-06T17:27:05.705Z,13.17
2018-09-06T17:29:34.168Z,12.57
2018-09-06T17:32:02.877Z,13.43
2018-09-06T17:34:31.281Z,12.27
2018-09-06T17:36:59.801Z,12.30
2018-09-06T17:39:28.295Z,12.87
2018-09-06T17:41:56.702Z,12.90
2018-09-06T17:44:25.189Z,13.43
2018-09-06T17:46:53.725Z,12.63
2018-09-06T17:49:22.298Z,11.83
2018-09-06T17:51:50.735Z,12.43
2018-09-06T17:54:19.180Z,11.63
2018-09-06T17:56:47.767Z,12.00
2018-09-06T17:59:16.230Z,11.87
2018-09-06T18:01:44.674Z,11.37
2018-09-06T18:04:13.150Z,12.20
2018-09-06T18:06:41.632Z,10.30
2018-09-06T18:09:12.028Z,11.27
2018-09-06T18:11:41.213Z,10.40
2018-09-06T18:14:09.909Z,10.30
2018-09-06T18:16:38.393Z,9.97
2018-09-06T18:19:06.852Z,11.50
2018-09-06T18:21:35.276Z,11.00
2018-09-06T18:24:03.800Z,10.20
2018-09-06T18:26:32.339Z,10.57
2018-09-06T18:29:00.862Z,10.43
2018-09-06T18:31:29.456Z,9.33
2018-09-06T18:33:58.089Z,9.30
2018-09-06T18:36:26.579Z,9.50
2018-09-06T18:38:55.187Z,7.30
2018-09-06T18:41:23.581Z,8.30
2018-09-06T18:43:52.024Z,8.70
2018-09-06T18:46:20.642Z,8.47
2018-09-06T18:48:49.064Z,8.67
2018-09-06T18:51:17.828Z,8.47
2018-09-06T18:53:46.488Z,9.20
2018-09-06T18:56:15.014Z,9.20
2018-09-06T18:58:43.681Z,8.97
2018-09-06T19:01:12.087Z,9.37
2018-09-06T19:03:40.501Z,8.70
2018-09-06T19:06:09.172Z,9.13
2018-09-06T19:08:37.656Z,9.13
2018-09-06T19:11:06.249Z,9.13
2018-09-06T19:13:34.941Z,8.87
2018-09-06T19:16:03.494Z,9.20
2018-09-06T19:18:31.998Z,9.07
2018-09-06T19:21:00.433Z,9.07
2018-09-06T19:23:28.849Z,9.13
2018-09-06T19:25:57.293Z,9.73
2018-09-06T19:28:25.708Z,10.80
2018-09-06T19:30:54.220Z,9.13
2018-09-06T19:33:22.893Z,9.30
2018-09-06T19:35:51.320Z,10.40
2018-09-06T19:38:19.799Z,10.67
2018-09-06T19:40:48.626Z,10.90
2018-09-06T19:43:17.119Z,11.77
2018-09-06T19:45:45.544Z,11.50
2018-09-06T19:48:14.110Z,11.23
2018-09-06T19:50:42.525Z,10.37
2018-09-06T19:53:10.951Z,10.87
2018-09-06T19:55:39.380Z,11.80
2018-09-06T19:58:07.797Z,10.37
2018-09-06T20:00:36.278Z,11.63
2018-09-06T20:03:04.794Z,10.37
2018-09-06T20:05:34.204Z,11.17
2018-09-06T20:08:02.825Z,10.47
2018-09-06T20:10:31.291Z,11.30
2018-09-06T20:12:59.789Z,10.47
2018-09-06T20:15:28.239Z,11.27
2018-09-06T20:17:56.729Z,11.70
2018-09-06T20:20:25.148Z,11.40
2018-09-06T20:22:53.557Z,10.90
2018-09-06T20:25:22.032Z,11.10
2018-09-06T20:27:50.499Z,11.50
2018-09-06T20:30:18.933Z,11.60
2018-09-06T20:32:47.358Z,12.33
2018-09-06T20:35:15.930Z,11.90
2018-09-06T20:37:44.365Z,11.80
2018-09-06T20:40:12.820Z,12.20
2018-09-06T20:42:41.565Z,12.17
2018-09-06T20:45:10.012Z,13.00
2018-09-06T20:47:38.613Z,12.87
2018-09-06T20:50:07.108Z,14.00
2018-09-06T20:52:35.731Z,13.43
2018-09-06T20:55:04.272Z,13.30
2018-09-06T20:57:33.064Z,13.53
2018-09-06T21:00:02.160Z,13.97
2018-09-06T21:02:36.193Z,13.73
2018-09-06T21:05:04.901Z,14.80
2018-09-06T21:07:33.516Z,13.87
2018-09-06T21:10:02.504Z,14.30
2018-09-06T21:12:31.115Z,15.07
2018-09-06T21:14:59.788Z,15.13
2018-09-06T21:17:28.349Z,14.43
2018-09-06T21:19:56.944Z,15.60
2018-09-06T21:22:25.506Z,15.53
2018-09-06T21:24:53.935Z,13.33
2018-09-06T21:27:22.443Z,14.47
2018-09-06T21:29:50.929Z,15.57
2018-09-06T21:32:19.625Z,13.73
2018-09-06T21:34:48.115Z,14.00
2018-09-06T21:37:16.495Z,14.10
2018-09-06T21:39:45.082Z,14.63
2018-09-06T21:42:13.519Z,13.90
2018-09-06T21:44:41.919Z,14.30
2018-09-06T21:47:10.714Z,13.93
2018-09-06T21:49:39.413Z,15.00
2018-09-06T21:52:07.964Z,14.10
2018-09-06T21:54:36.390Z,13.43
2018-09-06T21:57:04.822Z,13.50
2018-09-06T21:59:33.237Z,13.30
2018-09-06T22:02:01.884Z,14.40
2018-09-06T22:04:30.315Z,13.53
2018-09-06T22:06:58.739Z,13.30
2018-09-06T22:09:27.251Z,14.80
2018-09-06T22:11:55.673Z,15.67
2018-09-06T22:14:24.128Z,16.50
2018-09-06T22:16:52.593Z,17.93
2018-09-06T22:19:21.004Z,18.30
2018-09-06T22:21:49.426Z,19.73
2018-09-06T22:24:17.836Z,18.80
2018-09-06T22:26:46.232Z,18.23
2018-09-06T22:29:14.633Z,17.70
2018-09-06T22:31:43.241Z,16.83
2018-09-06T22:34:11.648Z,18.33
2018-09-06T22:36:40.049Z,19.13
2018-09-06T22:39:09.384Z,18.83
2018-09-06T22:41:37.800Z,18.30
2018-09-06T22:44:06.650Z,18.57
2018-09-06T22:46:35.057Z,19.87
2018-09-06T22:49:03.534Z,18.30
2018-09-06T22:51:31.876Z,18.80
2018-09-06T22:54:00.310Z,17.70
2018-09-06T22:56:28.756Z,18.80
2018-09-06T22:58:57.160Z,18.03
2018-09-06T23:01:25.616Z,20.60
2018-09-06T23:03:54.653Z,20.07
2018-09-06T23:06:23.437Z,20.17
2018-09-06T23:08:52.158Z,19.53
2018-09-06T23:11:20.563Z,21.13
2018-09-06T23:13:48.976Z,21.20
2018-09-06T23:16:17.480Z,19.37
2018-09-06T23:18:45.909Z,21.27
2018-09-06T23:21:14.345Z,19.80
2018-09-06T23:23:42.766Z,20.67
2018-09-06T23:26:11.161Z,21.23
2018-09-06T23:28:39.561Z,20.47
2018-09-06T23:31:08.113Z,22.07
2018-09-06T23:33:36.566Z,21.97
2018-09-06T23:36:04.958Z,21.47
2018-09-06T23:38:33.361Z,21.80
2018-09-06T23:41:01.892Z,22.27
2018-09-06T23:43:30.293Z,19.97
2018-09-06T23:45:59.538Z,21.60
2018-09-06T23:48:29.148Z,22.37
2018-09-06T23:50:58.353Z,22.80
2018-09-06T23:53:27.669Z,21.60
2018-09-06T23:55:56.364Z,22.47
2018-09-06T23:58:25.109Z,22.27
